createdAt,value
2018-04-14T00:02:25.629Z,8.88
2018-04-14T00:04:53.628Z,8.57
2018-04-14T00:07:22.033Z,8.30
2018-04-14T00:09:49.664Z,9.35
2018-04-14T00:12:18.135Z,10.07
2018-04-14T00:14:47.679Z,10.73
2018-04-14T00:17:16.367Z,9.63
2018-04-14T00:19:43.918Z,10.30
2018-04-14T00:22:11.444Z,9.13
2018-04-14T00:24:39.013Z,10.30
2018-04-14T00:27:06.549Z,9.10
2018-04-14T00:29:34.148Z,8.10
2018-04-14T00:32:01.656Z,8.83
2018-04-14T00:34:29.203Z,10.60
2018-04-14T00:36:56.726Z,10.67
2018-04-14T00:39:24.337Z,10.63
2018-04-14T00:41:51.861Z,11.03
2018-04-14T00:44:19.493Z,11.47
2018-04-14T00:46:47.077Z,11.07
2018-04-14T00:49:14.641Z,10.82
2018-04-14T00:51:42.175Z,10.47
2018-04-14T00:54:09.722Z,10.93
2018-04-14T00:56:37.279Z,10.93
2018-04-14T00:59:04.851Z,9.80
2018-04-14T01:01:32.410Z,13.93
2018-04-14T01:06:33.833Z,10.27
2018-04-14T01:09:01.449Z,10.40
2018-04-14T01:11:28.990Z,10.50
2018-04-14T01:13:56.541Z,9.00
2018-04-14T01:16:24.065Z,8.68
2018-04-14T01:18:51.621Z,8.97
2018-04-14T01:21:19.151Z,9.07
2018-04-14T01:23:46.751Z,14.00
2018-04-14T01:26:14.306Z,12.60
2018-04-14T01:28:41.855Z,13.13
2018-04-14T01:31:09.438Z,12.10
2018-04-14T01:33:36.961Z,14.43
2018-04-14T01:36:04.537Z,12.53
2018-04-14T01:38:32.065Z,13.30
2018-04-14T01:40:59.650Z,12.50
2018-04-14T01:43:27.190Z,11.23
2018-04-14T01:45:54.769Z,12.97
2018-04-14T01:48:22.327Z,11.27
2018-04-14T01:50:49.901Z,11.57
2018-04-14T01:53:17.429Z,11.20
2018-04-14T01:55:45.033Z,12.23
2018-04-14T01:58:12.605Z,12.40
2018-04-14T02:00:40.162Z,11.87
2018-04-14T02:03:07.686Z,11.87
2018-04-14T02:05:35.243Z,10.73
2018-04-14T02:08:02.762Z,11.40
2018-04-14T02:10:30.322Z,12.40
2018-04-14T02:12:57.996Z,11.93
2018-04-14T02:15:25.549Z,12.83
2018-04-14T02:17:53.101Z,12.37
2018-04-14T02:20:20.656Z,10.43
2018-04-14T02:22:48.206Z,10.93
2018-04-14T02:25:15.757Z,11.38
2018-04-14T02:27:43.289Z,10.63
2018-04-14T02:30:10.863Z,12.83
2018-04-14T02:32:39.466Z,11.88
2018-04-14T02:35:07.018Z,11.17
2018-04-14T02:37:34.542Z,13.65
2018-04-14T02:40:02.174Z,12.03
2018-04-14T02:42:29.725Z,13.23
2018-04-14T02:44:57.277Z,13.83
2018-04-14T02:47:24.829Z,12.90
2018-04-14T02:49:52.408Z,13.43
2018-04-14T02:52:20.001Z,12.93
2018-04-14T02:54:47.544Z,12.23
2018-04-14T02:57:15.128Z,13.13
2018-04-14T02:59:42.688Z,12.47
2018-04-14T03:02:10.310Z,13.30
2018-04-14T03:04:37.973Z,14.10
2018-04-14T03:07:05.542Z,12.65
2018-04-14T03:09:33.077Z,12.07
2018-04-14T03:12:00.649Z,12.65
2018-04-14T03:14:28.170Z,12.17
2018-04-14T03:16:55.731Z,11.70
2018-04-14T03:19:23.256Z,14.13
2018-04-14T03:21:50.892Z,12.15
2018-04-14T03:24:18.429Z,11.90
2018-04-14T03:26:45.993Z,13.17
2018-04-14T03:29:13.516Z,12.77
2018-04-14T03:31:41.117Z,12.33
2018-04-14T03:34:08.667Z,14.93
2018-04-14T03:36:36.223Z,13.80
2018-04-14T03:39:03.778Z,16.43
2018-04-14T03:41:31.354Z,15.23
2018-04-14T03:43:58.906Z,13.87
2018-04-14T03:46:26.459Z,15.02
2018-04-14T03:48:53.983Z,14.27
2018-04-14T03:51:21.566Z,14.10
2018-04-14T03:53:49.090Z,13.80
2018-04-14T03:56:16.674Z,13.60
2018-04-14T03:58:44.194Z,13.40
2018-04-14T04:01:11.747Z,13.15
2018-04-14T04:03:39.811Z,14.93
2018-04-14T04:06:07.381Z,13.47
2018-04-14T04:08:34.901Z,13.97
2018-04-14T04:11:02.477Z,13.10
2018-04-14T04:13:30.006Z,13.70
2018-04-14T04:15:57.555Z,14.52
2018-04-14T04:18:37.038Z,13.43
2018-04-14T04:21:16.434Z,13.43
2018-04-14T04:23:55.751Z,13.40
2018-04-14T04:26:23.320Z,15.63
2018-04-14T04:28:50.839Z,13.45
2018-04-14T04:31:18.402Z,15.43
2018-04-14T04:33:45.949Z,13.50
2018-04-14T04:36:13.510Z,13.73
2018-04-14T04:38:41.033Z,13.33
2018-04-14T04:41:08.584Z,14.23
2018-04-14T04:43:36.137Z,14.97
2018-04-14T04:46:03.716Z,14.50
2018-04-14T04:48:31.238Z,14.30
2018-04-14T04:50:58.836Z,13.67
2018-04-14T04:53:26.369Z,15.37
2018-04-14T04:55:53.895Z,15.73
2018-04-14T04:58:21.472Z,14.98
2018-04-14T05:00:49.002Z,15.77
2018-04-14T05:03:16.572Z,15.38
2018-04-14T05:05:44.101Z,15.83
2018-04-14T05:08:11.680Z,16.90
2018-04-14T05:10:40.110Z,15.27
2018-04-14T05:13:07.732Z,16.03
2018-04-14T05:15:35.263Z,16.57
2018-04-14T05:18:02.840Z,16.33
2018-04-14T05:20:30.370Z,15.90
2018-04-14T05:22:57.972Z,15.97
2018-04-14T05:25:25.501Z,16.83
2018-04-14T05:27:53.090Z,17.67
2018-04-14T05:30:20.608Z,16.63
2018-04-14T05:32:48.184Z,17.27
2018-04-14T05:35:15.705Z,16.50
2018-04-14T05:37:43.261Z,17.47
2018-04-14T05:40:11.086Z,15.80
2018-04-14T05:42:38.666Z,16.97
2018-04-14T05:45:06.190Z,15.50
2018-04-14T05:47:33.745Z,16.87
2018-04-14T05:50:01.344Z,17.43
2018-04-14T05:52:28.942Z,16.53
2018-04-14T05:54:56.473Z,19.20
2018-04-14T05:57:24.039Z,17.80
2018-04-14T05:59:51.904Z,19.17
2018-04-14T06:02:26.667Z,17.92
2018-04-14T06:05:01.833Z,17.83
2018-04-14T06:07:30.227Z,18.07
2018-04-14T06:09:58.119Z,16.83
2018-04-14T06:12:26.266Z,16.17
2018-04-14T06:14:55.562Z,16.57
2018-04-14T06:17:23.320Z,15.03
2018-04-14T06:19:53.746Z,15.43
2018-04-14T06:22:24.450Z,15.77
2018-04-14T06:24:52.844Z,18.27
2018-04-14T06:27:20.730Z,14.93
2018-04-14T06:29:48.397Z,13.43
2018-04-14T06:32:16.039Z,13.50
2018-04-14T06:34:44.392Z,14.37
2018-04-14T06:37:12.117Z,14.10
2018-04-14T06:39:40.591Z,14.25
2018-04-14T06:42:08.221Z,13.47
2018-04-14T06:44:35.749Z,16.00
2018-04-14T06:47:03.326Z,16.37
2018-04-14T06:49:30.903Z,15.90
2018-04-14T06:51:58.427Z,14.87
2018-04-14T06:54:25.978Z,15.03
2018-04-14T06:56:53.610Z,13.43
2018-04-14T06:59:21.263Z,13.53
2018-04-14T07:01:48.810Z,15.70
2018-04-14T07:04:16.373Z,14.93
2018-04-14T07:06:43.966Z,17.87
2018-04-14T07:09:11.563Z,14.77
2018-04-14T07:11:39.120Z,14.77
2018-04-14T07:14:06.696Z,28.27
2018-04-14T07:16:34.224Z,16.30
2018-04-14T07:19:01.802Z,15.00
2018-04-14T07:21:29.573Z,13.10
2018-04-14T07:23:57.235Z,12.73
2018-04-14T07:26:24.803Z,13.17
2018-04-14T07:28:52.362Z,13.90
2018-04-14T07:31:20.187Z,13.83
2018-04-14T07:33:48.940Z,12.80
2018-04-14T07:36:16.492Z,12.13
2018-04-14T07:38:53.596Z,13.06
2018-04-14T07:41:21.746Z,10.80
2018-04-14T07:43:49.306Z,12.33
2018-04-14T07:46:17.002Z,11.40
2018-04-14T07:48:44.774Z,10.10
2018-04-14T07:51:12.658Z,9.63
2018-04-14T07:53:42.230Z,9.83
2018-04-14T07:56:13.485Z,10.10
2018-04-14T07:58:41.959Z,10.43
2018-04-14T08:01:09.517Z,9.18
2018-04-14T08:03:37.168Z,11.30
2018-04-14T08:06:04.847Z,10.03
2018-04-14T08:08:32.398Z,9.50
2018-04-14T08:11:00.389Z,9.47
2018-04-14T08:13:28.533Z,8.63
2018-04-14T08:15:56.072Z,9.00
2018-04-14T08:18:23.855Z,11.80
2018-04-14T08:20:51.631Z,11.10
2018-04-14T08:23:19.610Z,11.07
2018-04-14T08:25:48.132Z,10.73
2018-04-14T08:28:15.741Z,14.70
2018-04-14T08:30:46.693Z,11.77
2018-04-14T08:33:14.644Z,14.37
2018-04-14T08:35:42.200Z,14.83
2018-04-14T08:38:09.905Z,21.63
2018-04-14T08:40:37.778Z,20.80
2018-04-14T08:43:05.352Z,18.90
2018-04-14T08:45:32.909Z,16.37
2018-04-14T08:48:00.439Z,17.73
2018-04-14T08:50:28.010Z,16.98
2018-04-14T08:52:55.579Z,12.10
2018-04-14T08:55:23.137Z,14.67
2018-04-14T08:57:51.094Z,16.73
2018-04-14T09:00:18.676Z,17.20
2018-04-14T09:02:46.222Z,13.13
2018-04-14T09:05:13.797Z,16.03
2018-04-14T09:07:42.225Z,19.37
2018-04-14T09:10:09.776Z,12.80
2018-04-14T09:12:37.334Z,11.80
2018-04-14T09:15:20.531Z,9.10
2018-04-14T09:17:48.057Z,14.90
2018-04-14T09:20:15.613Z,8.10
2018-04-14T09:22:43.143Z,8.00
2018-04-14T09:25:10.714Z,8.30
2018-04-14T09:27:38.242Z,16.37
2018-04-14T09:30:05.818Z,6.20
2018-04-14T09:32:33.944Z,18.63
2018-04-14T09:35:01.576Z,53.20
2018-04-14T09:37:31.153Z,28.03
2018-04-14T09:39:58.734Z,10.27
2018-04-14T09:42:26.279Z,6.47
2018-04-14T09:44:53.837Z,7.83
2018-04-14T09:47:21.367Z,9.45
2018-04-14T09:49:49.509Z,4.40
2018-04-14T09:52:17.264Z,7.82
2018-04-14T09:54:44.847Z,4.80
2018-04-14T09:57:12.373Z,6.03
2018-04-14T09:59:39.928Z,7.20
2018-04-14T10:02:10.450Z,4.90
2018-04-14T10:04:38.029Z,4.50
2018-04-14T10:07:09.380Z,7.87
2018-04-14T10:09:36.959Z,6.40
2018-04-14T10:12:06.392Z,4.47
2018-04-14T10:14:33.986Z,6.93
2018-04-14T10:17:01.510Z,4.00
2018-04-14T10:19:29.091Z,6.67
2018-04-14T10:21:56.646Z,5.07
2018-04-14T10:24:24.197Z,3.97
2018-04-14T10:27:05.016Z,3.67
2018-04-14T10:29:32.573Z,3.13
2018-04-14T10:32:00.104Z,3.27
2018-04-14T10:34:27.677Z,2.75
2018-04-14T10:36:55.213Z,4.77
2018-04-14T10:39:22.759Z,2.93
2018-04-14T10:41:50.631Z,2.03
2018-04-14T10:44:18.164Z,2.40
2018-04-14T10:46:45.715Z,5.17
2018-04-14T10:49:13.246Z,3.62
2018-04-14T10:51:40.998Z,4.13
2018-04-14T10:54:08.549Z,5.70
2018-04-14T10:56:36.221Z,3.03
2018-04-14T10:59:03.778Z,2.10
2018-04-14T11:01:31.333Z,3.47
2018-04-14T11:04:01.265Z,2.92
2018-04-14T11:06:28.803Z,2.47
2018-04-14T11:08:56.367Z,4.10
2018-04-14T11:11:23.939Z,2.28
2018-04-14T11:13:51.471Z,1.70
2018-04-14T11:16:19.017Z,9.13
2018-04-14T11:18:46.527Z,1.37
2018-04-14T11:21:14.099Z,1.17
2018-04-14T11:23:42.607Z,1.00
2018-04-14T11:26:10.179Z,2.70
2018-04-14T11:28:37.705Z,4.77
2018-04-14T11:31:05.253Z,2.00
2018-04-14T11:33:32.765Z,2.13
2018-04-14T11:36:00.314Z,2.20
2018-04-14T11:38:27.839Z,3.07
2018-04-14T11:40:55.395Z,1.20
2018-04-14T11:43:23.023Z,2.17
2018-04-14T11:45:51.240Z,0.85
2018-04-14T11:48:18.851Z,1.77
2018-04-14T11:50:46.957Z,16.37
2018-04-14T11:53:14.522Z,8.45
2018-04-14T11:55:42.728Z,15.35
2018-04-14T11:58:10.334Z,3.40
2018-04-14T12:00:37.930Z,4.20
2018-04-14T12:03:06.305Z,3.47
2018-04-14T12:05:33.871Z,4.63
2018-04-14T12:08:01.647Z,1.43
2018-04-14T12:10:29.498Z,1.30
2018-04-14T12:12:57.452Z,2.33
2018-04-14T12:15:24.998Z,6.87
2018-04-14T12:17:52.707Z,4.70
2018-04-14T12:20:20.347Z,3.07
2018-04-14T12:22:48.183Z,1.23
2018-04-14T12:25:15.731Z,2.10
2018-04-14T12:27:43.712Z,1.70
2018-04-14T12:30:12.465Z,3.37
2018-04-14T12:32:40.027Z,2.10
2018-04-14T12:35:07.617Z,1.37
2018-04-14T12:37:35.167Z,2.60
2018-04-14T12:40:02.772Z,1.10
2018-04-14T12:42:30.389Z,1.80
2018-04-14T12:44:57.899Z,1.50
2018-04-14T12:47:27.488Z,1.40
2018-04-14T12:49:57.890Z,1.08
2018-04-14T12:52:26.782Z,2.27
2018-04-14T12:54:55.184Z,1.30
2018-04-14T12:57:22.811Z,2.47
2018-04-14T12:59:50.339Z,4.15
2018-04-14T13:02:17.913Z,1.03
2018-04-14T13:04:45.445Z,2.83
2018-04-14T13:07:13.870Z,2.40
2018-04-14T13:09:41.396Z,1.10
2018-04-14T13:12:09.125Z,0.90
2018-04-14T13:14:36.653Z,1.00
2018-04-14T13:17:04.209Z,1.00
2018-04-14T13:19:31.768Z,1.40
2018-04-14T13:21:59.310Z,2.67
2018-04-14T13:24:26.841Z,3.20
2018-04-14T13:26:54.390Z,1.33
2018-04-14T13:29:21.915Z,1.20
2018-04-14T13:31:53.371Z,1.20
2018-04-14T13:34:21.017Z,1.52
2018-04-14T13:36:48.772Z,1.23
2018-04-14T13:39:16.324Z,1.57
2018-04-14T13:41:43.902Z,3.00
2018-04-14T13:44:11.432Z,1.30
2018-04-14T13:46:39.904Z,1.10
2018-04-14T13:49:07.929Z,1.23
2018-04-14T13:51:35.438Z,1.50
2018-04-14T13:54:03.063Z,2.50
2018-04-14T13:56:30.692Z,1.83
2018-04-14T13:58:58.557Z,1.15
2018-04-14T14:01:26.421Z,1.60
2018-04-14T14:03:54.496Z,1.40
2018-04-14T14:06:22.026Z,2.37
2018-04-14T14:08:49.859Z,1.27
2018-04-14T14:11:17.503Z,1.53
2018-04-14T14:13:45.413Z,1.30
2018-04-14T14:16:13.982Z,2.53
2018-04-14T14:18:41.561Z,1.43
2018-04-14T14:21:09.269Z,2.20
2018-04-14T14:23:37.016Z,1.50
2018-04-14T14:26:04.593Z,3.45
2018-04-14T14:28:32.148Z,1.30
2018-04-14T14:30:59.672Z,1.30
2018-04-14T14:33:27.223Z,1.37
2018-04-14T14:35:55.180Z,2.80
2018-04-14T14:38:22.777Z,1.50
2018-04-14T14:40:50.305Z,1.30
2018-04-14T14:43:17.857Z,1.20
2018-04-14T14:45:45.384Z,5.00
2018-04-14T14:48:12.940Z,2.77
2018-04-14T14:50:40.464Z,2.30
2018-04-14T14:53:08.019Z,1.00
2018-04-14T14:55:35.545Z,1.43
2018-04-14T14:58:03.122Z,2.17
2018-04-14T15:00:30.649Z,3.53
2018-04-14T15:02:58.496Z,2.43
2018-04-14T15:05:26.157Z,2.97
2018-04-14T15:07:53.714Z,3.00
2018-04-14T15:10:21.439Z,1.30
2018-04-14T15:12:48.959Z,1.35
2018-04-14T15:15:16.612Z,1.60
2018-04-14T15:17:44.967Z,1.50
2018-04-14T15:20:12.518Z,1.30
2018-04-14T15:22:40.049Z,1.83
2018-04-14T15:25:07.597Z,0.90
2018-04-14T15:27:35.172Z,1.40
2018-04-14T15:30:03.224Z,1.30
2018-04-14T15:32:30.777Z,2.95
2018-04-14T15:34:58.455Z,1.83
2018-04-14T15:37:25.990Z,0.90
2018-04-14T15:39:53.558Z,1.83
2018-04-14T15:42:21.361Z,3.28
2018-04-14T15:44:48.958Z,2.87
2018-04-14T15:47:16.488Z,1.77
2018-04-14T15:49:44.073Z,1.13
2018-04-14T15:52:11.594Z,1.53
2018-04-14T15:54:39.272Z,1.40
2018-04-14T15:57:07.098Z,1.77
2018-04-14T15:59:34.669Z,1.53
2018-04-14T16:02:02.276Z,5.70
2018-04-14T16:04:29.961Z,1.35
2018-04-14T16:06:57.570Z,2.08
2018-04-14T16:09:25.176Z,2.20
2018-04-14T16:11:52.713Z,2.03
2018-04-14T16:14:20.266Z,3.20
2018-04-14T16:16:47.792Z,3.90
2018-04-14T16:19:15.416Z,2.70
2018-04-14T16:21:44.893Z,2.27
2018-04-14T16:24:12.923Z,2.15
2018-04-14T16:26:40.476Z,2.30
2018-04-14T16:29:08.081Z,1.73
2018-04-14T16:31:35.756Z,3.30
2018-04-14T16:34:03.308Z,1.80
2018-04-14T16:36:30.837Z,1.57
2018-04-14T16:39:00.158Z,1.73
2018-04-14T16:41:27.937Z,1.50
2018-04-14T16:43:55.945Z,1.40
2018-04-14T16:46:23.572Z,1.52
2018-04-14T16:48:51.097Z,2.10
2018-04-14T16:51:18.648Z,1.80
2018-04-14T16:53:46.654Z,1.47
2018-04-14T16:56:14.512Z,1.47
2018-04-14T16:58:42.230Z,1.40
2018-04-14T17:01:10.758Z,1.50
2018-04-14T17:03:39.239Z,1.23
2018-04-14T17:06:07.364Z,2.10
2018-04-14T17:08:35.012Z,1.70
2018-04-14T17:11:02.567Z,2.67
2018-04-14T17:13:30.221Z,1.57
2018-04-14T17:15:58.291Z,2.05
2018-04-14T17:18:27.482Z,1.57
2018-04-14T17:20:56.546Z,3.30
2018-04-14T17:23:25.461Z,1.40
2018-04-14T17:25:53.031Z,1.40
2018-04-14T17:28:20.782Z,1.33
2018-04-14T17:30:48.337Z,2.13
2018-04-14T17:33:16.914Z,1.40
2018-04-14T17:35:44.458Z,1.17
2018-04-14T17:38:12.009Z,1.20
2018-04-14T17:40:39.798Z,1.20
2018-04-14T17:43:07.323Z,1.80
2018-04-14T17:47:59.701Z,1.70
2018-04-14T17:50:27.256Z,1.63
2018-04-14T17:52:54.831Z,1.60
2018-04-14T17:55:22.410Z,3.53
2018-04-14T17:57:49.962Z,1.60
2018-04-14T18:00:17.534Z,2.40
2018-04-14T18:02:45.065Z,1.90
2018-04-14T18:05:12.617Z,2.47
2018-04-14T18:07:40.149Z,3.03
2018-04-14T18:10:07.950Z,5.17
2018-04-14T18:12:35.477Z,4.67
2018-04-14T18:15:03.029Z,3.80
2018-04-14T18:17:30.628Z,5.00
2018-04-14T18:19:58.158Z,3.12
2018-04-14T18:22:25.717Z,4.97
2018-04-14T18:24:53.311Z,9.10
2018-04-14T18:27:20.976Z,10.33
2018-04-14T18:29:48.541Z,8.13
2018-04-14T18:32:16.298Z,7.50
2018-04-14T18:34:43.849Z,10.53
2018-04-14T18:37:11.403Z,9.67
2018-04-14T18:39:38.924Z,6.40
2018-04-14T18:42:06.545Z,6.13
2018-04-14T18:44:34.077Z,8.00
2018-04-14T18:47:02.369Z,10.83
2018-04-14T18:49:29.885Z,7.10
2018-04-14T18:51:57.488Z,7.53
2018-04-14T18:54:25.024Z,9.47
2018-04-14T18:56:55.488Z,9.00
2018-04-14T18:59:23.173Z,7.35
2018-04-14T19:01:50.798Z,9.17
2018-04-14T19:04:18.321Z,7.63
2018-04-14T19:06:45.899Z,8.27
2018-04-14T19:09:16.725Z,6.63
2018-04-14T19:11:45.030Z,7.43
2018-04-14T19:14:13.101Z,9.43
2018-04-14T19:16:41.078Z,6.30
2018-04-14T19:19:08.841Z,5.90
2018-04-14T19:21:38.338Z,6.13
2018-04-14T19:24:05.967Z,6.97
2018-04-14T19:26:33.862Z,6.60
2018-04-14T19:29:05.448Z,6.27
2018-04-14T19:31:33.797Z,5.43
2018-04-14T19:34:03.346Z,5.60
2018-04-14T19:36:34.405Z,7.65
2018-04-14T19:39:02.420Z,6.23
2018-04-14T19:41:31.408Z,6.05
2018-04-14T19:44:02.661Z,6.63
2018-04-14T19:46:32.057Z,8.18
2018-04-14T19:49:01.113Z,6.87
2018-04-14T19:51:30.980Z,8.53
2018-04-14T19:54:01.675Z,9.40
2018-04-14T19:56:32.717Z,7.62
2018-04-14T19:59:00.490Z,7.95
2018-04-14T20:01:29.399Z,8.18
2018-04-14T20:03:58.737Z,10.57
2018-04-14T20:06:27.727Z,9.95
2018-04-14T20:08:55.561Z,8.67
2018-04-14T20:11:23.786Z,8.70
2018-04-14T20:13:51.908Z,9.87
2018-04-14T20:16:20.060Z,8.50
2018-04-14T20:18:47.641Z,8.13
2018-04-14T20:21:16.318Z,7.73
2018-04-14T20:23:45.272Z,8.87
2018-04-14T20:26:14.518Z,7.13
2018-04-14T20:28:43.051Z,7.20
2018-04-14T20:31:11.681Z,7.15
2018-04-14T20:33:39.254Z,6.87
2018-04-14T20:36:06.807Z,8.18
2018-04-14T20:38:34.778Z,6.72
2018-04-14T20:41:02.737Z,7.93
2018-04-14T20:43:30.813Z,7.20
2018-04-14T20:45:59.663Z,8.27
2018-04-14T20:48:27.893Z,7.20
2018-04-14T20:50:55.925Z,7.93
2018-04-14T20:53:25.132Z,9.90
2018-04-14T20:55:52.838Z,7.80
2018-04-14T20:58:21.523Z,8.80
2018-04-14T21:00:49.580Z,9.00
2018-04-14T21:03:18.034Z,9.02
2018-04-14T21:05:46.234Z,8.53
2018-04-14T21:08:14.080Z,10.32
2018-04-14T21:10:42.058Z,7.90
2018-04-14T21:13:09.723Z,7.90
2018-04-14T21:15:37.243Z,8.27
2018-04-14T21:18:04.794Z,8.07
2018-04-14T21:20:32.322Z,7.67
2018-04-14T21:22:59.959Z,7.40
2018-04-14T21:25:27.619Z,8.00
2018-04-14T21:27:55.420Z,7.60
2018-04-14T21:30:22.956Z,6.73
2018-04-14T21:32:50.526Z,7.07
2018-04-14T21:35:18.266Z,7.77
2018-04-14T21:37:45.863Z,8.07
2018-04-14T21:40:13.413Z,6.97
2018-04-14T21:42:41.048Z,8.27
2018-04-14T21:45:08.570Z,10.83
2018-04-14T21:47:36.172Z,10.20
2018-04-14T21:50:04.087Z,11.45
2018-04-14T21:52:31.893Z,12.03
2018-04-14T21:54:59.573Z,18.40
2018-04-14T21:57:27.679Z,11.83
2018-04-14T21:59:55.633Z,11.80
2018-04-14T22:02:23.209Z,11.40
2018-04-14T22:04:50.879Z,6.43
2018-04-14T22:07:19.265Z,4.57
2018-04-14T22:09:47.405Z,5.00
2018-04-14T22:12:15.059Z,3.90
2018-04-14T22:14:42.641Z,3.90
2018-04-14T22:17:10.229Z,2.77
2018-04-14T22:19:38.231Z,3.80
2018-04-14T22:22:06.204Z,3.30
2018-04-14T22:24:34.437Z,3.70
2018-04-14T22:27:02.146Z,3.00
2018-04-14T22:29:29.809Z,3.10
2018-04-14T22:31:57.365Z,3.50
2018-04-14T22:34:27.777Z,3.17
2018-04-14T22:36:55.302Z,4.20
2018-04-14T22:39:23.521Z,3.13
2018-04-14T22:41:51.078Z,2.90
2018-04-14T22:44:18.624Z,2.67
2018-04-14T22:46:46.175Z,3.03
2018-04-14T22:49:13.753Z,3.87
2018-04-14T22:51:41.319Z,2.80
2018-04-14T22:54:08.984Z,2.80
2018-04-14T22:56:36.541Z,2.40
2018-04-14T22:59:04.087Z,2.67
2018-04-14T23:01:31.613Z,3.27
2018-04-14T23:03:59.151Z,3.15
2018-04-14T23:06:26.697Z,2.90
2018-04-14T23:08:54.272Z,3.65
2018-04-14T23:11:21.803Z,2.93
2018-04-14T23:13:49.453Z,2.80
2018-04-14T23:16:16.966Z,3.23
2018-04-14T23:18:44.577Z,3.03
2018-04-14T23:21:12.133Z,2.57
2018-04-14T23:23:39.686Z,2.60
2018-04-14T23:26:07.262Z,2.73
2018-04-14T23:28:34.814Z,2.80
2018-04-14T23:31:02.337Z,3.73
2018-04-14T23:33:29.969Z,3.10
2018-04-14T23:35:57.496Z,3.17
2018-04-14T23:38:25.047Z,2.87
2018-04-14T23:40:52.569Z,2.92
2018-04-14T23:43:20.175Z,2.80
2018-04-14T23:45:48.493Z,2.97
2018-04-14T23:48:16.001Z,2.47
2018-04-14T23:50:43.558Z,4.40
2018-04-14T23:53:11.072Z,2.60
2018-04-14T23:55:38.635Z,2.20
2018-04-14T23:58:06.166Z,2.03
